Terminal Aerodrome Forecast
Issued by NWS

Home | Current Version | Previous Version | Text Only | Print | Product List | Glossary On
Versions: 1 2 3 4 5 6 7 8 9 10 11 12 13 14 15
000
FTUS45 KREV 251300 AAA
TAFRNO
TAF AMD
KRNO 251311Z 2513/2612 19022G34KT P6SM SCT200 WS015/23040KT
     FM251700 19026G38KT P6SM SCT100 BKN200 WS015/23045KT
     FM252100 25014G22KT P6SM SCT100 BKN150
     FM260400 29007KT P6SM SCT100=

USA.gov is the U.S. government's official web portal to all federal, state and local government web resources and services.